• Join FlightAware (Why Join?)
  • Login
  • US Flag 
09:24AM EST


 

Airport Tracker/Info


-or-


 

Live Flight TrackerFlight Track Log ✈ OPT438 ✈ 13-Feb-2014 ✈ KCGF - KMSN

Flight Track Log - Related Links

Times and Time Zones

All times are in EST time to prevent confusion due to time zone crossing. See the OPT438 flight status page for this flight to view local times or setup timezone preferences in your user account.

Time Position Orientation Groundspeed Altitude Reporting Facility
EST Latitude Longitude Course Direction KTS MPH feet Rate Location/Type
06:38AM 41.5550 -81.5025 235° Southwest 131 151 2,000  Level Cleveland Center
06:38AM 41.5400 -81.5308 235° Southwest 156 180 2,600 1,912 Climbing Cleveland Center
06:39AM 41.5331 -81.5878 261° West 177 204 4,900 2,557 Climbing Cleveland Center
06:39AM 41.5319 -81.5967 261° West 190 219 5,200 2,800 Climbing Cleveland Center
06:40AM 41.5147 -81.6719 253° West 226 260 7,700 3,235 Climbing Cleveland Center
06:41AM 41.4922 -81.7683 253° West 269 310 11,400 3,443 Climbing Cleveland Center
06:42AM 41.4672 -81.8714 252° West 290 334 14,700 2,975 Climbing Cleveland Center
06:43AM 41.4656 -81.9861 269° West 314 361 17,400 2,479 Climbing Cleveland Center
06:44AM 41.5128 -82.0881 302° West 322 371 19,700 2,331 Climbing Cleveland Center
06:45AM 41.5544 -82.1933 298° West 319 367 22,100 2,182 Climbing Cleveland Center
06:46AM 41.5986 -82.3000 299° West 324 373 24,100 2,016 Climbing Cleveland Center
06:47AM 41.6403 -82.4125 296° West 333 383 26,200 1,918 Climbing Cleveland Center
06:48AM 41.6878 -82.5336 298° West 340 391 28,000 1,636 Climbing Cleveland Center
06:49AM 41.7350 -82.6533 298° West 359 413 29,500 1,488 Climbing Cleveland Center
06:50AM 41.7825 -82.7753 298° West 368 423 31,000 1,525 Climbing Cleveland Center
06:51AM 41.8297 -82.8975 297° West 370 426 32,600 1,438 Climbing Cleveland Center
06:52AM 41.8775 -83.0189 298° West 369 425 33,900 694 Climbing Cleveland Center
06:53AM 41.9261 -83.1467 297° West 381 438 34,000 49 Climbing Cleveland Center
06:55AM 41.9769 -83.2819 297° West 407 468 34,000  Level Cleveland Center
06:56AM 42.0317 -83.4253 297° West 424 488 34,000  Level Cleveland Center
06:57AM 42.0872 -83.5664 298° West 416 479 34,000 149 Level Cleveland Center
06:58AM 42.1386 -83.7058 296° West 409 471 34,300 683 Climbing Cleveland Center
06:59AM 42.1900 -83.8422 297° West 406 467 35,400 1,171 Climbing Cleveland Center
07:00AM 42.2403 -83.9758 297° West 399 459 36,700 1,230 Climbing Cleveland Center
07:01AM 42.2881 -84.1078 296° West 392 451 37,900 1,082 Climbing Cleveland Center
07:02AM 42.3358 -84.2358 297° West 384 442 38,900 787 Climbing Cleveland Center
07:03AM 42.3828 -84.3642 296° West 382 440 39,500 541 Climbing Cleveland Center
07:04AM 42.4306 -84.4942 297° West 385 443 40,000 248 Climbing Cleveland Center
07:05AM 42.4789 -84.6269 296° West 393 452 40,000  Level Cleveland Center
07:06AM 42.5339 -84.7806 296° West 401 461 40,000  Level Cleveland Center
07:07AM 42.5828 -84.9181 296° West 406 467 40,000  Level Cleveland Center
07:08AM 42.6325 -85.0572 296° West 410 472 40,000  Level Cleveland Center
07:09AM 42.6833 -85.1972 296° West 414 476 40,000  Level Cleveland Center
07:10AM 42.7319 -85.3400 295° West 417 480 40,000  Level Cleveland Center
07:11AM 42.7536 -85.4914 281° West 409 471 40,000  Level Cleveland Center
07:12AM 42.7717 -85.6436 279° West 408 470 40,000  Level Cleveland Center
07:13AM 42.7894 -85.7950 279° West 404 465 40,000  Level Cleveland Center
07:14AM 42.8078 -85.9461 279° West 402 463 40,000 -148 Level Cleveland Center
07:15AM 42.8247 -86.0981 279° West 402 463 39,700 -836 Descending Cleveland Center
07:16AM 42.8422 -86.2478 279° West 398 458 38,300 -1,721 Descending Cleveland Center
07:17AM 42.8581 -86.3964 278° West 395 455 36,200 -2,123 Descending Cleveland Center
07:18AM 42.8756 -86.5708 278° West 390 449 33,700 -1,767 Descending Chicago Center
07:19AM 42.8922 -86.7139 279° West 381 438 32,400 -843 Descending Chicago Center
07:20AM 42.9072 -86.8578 278° West 381 438 32,000 -197 Descending Chicago Center
07:21AM 42.9225 -87.0081 278° West 395 455 32,000  Level Chicago Center
07:22AM 42.9392 -87.1583 279° West 400 460 32,000 -446 Level Chicago Center
07:23AM 42.9553 -87.3067 278° West 399 459 31,100 -1,721 Descending Chicago Center
07:24AM 42.9686 -87.4683 276° West 382 440 28,500 -2,410 Descending Chicago Center
07:25AM 42.9831 -87.6128 278° West 383 441 26,200 -2,115 Descending Chicago Center
07:26AM 42.9975 -87.7542 278° West 378 435 24,200 -1,091 Descending Chicago Center
07:27AM 43.0100 -87.8917 277° West 365 420 24,000 -397 Descending Chicago Center
07:28AM 43.0233 -88.0317 277° West 368 423 23,400 -1,180 Descending Chicago Center
07:29AM 43.0367 -88.1733 277° West 373 429 21,600 -1,918 Descending Chicago Center
07:30AM 43.0503 -88.3114 278° West 365 420 19,500 -2,016 Descending Chicago Center
07:31AM 43.0617 -88.4411 277° West 347 399 17,500 -1,967 Descending Chicago Center
07:32AM 43.0728 -88.5672 277° West 336 387 15,500 -2,016 Descending Chicago Center
07:33AM 43.0839 -88.6931 277° West 333 383 13,400 -2,016 Descending Chicago Center
07:34AM 43.0942 -88.8167 277° West 327 376 11,400 -1,525 Descending Chicago Center
07:35AM 43.1064 -88.9314 278° West 308 354 10,300 -1,488 Descending Chicago Center
07:36AM 43.1486 -89.0131 305° West 271 312 8,400 -1,934 Descending Chicago Center
07:37AM 43.1850 -89.0911 303° West 255 293 6,400 -1,918 Descending Chicago Center
07:38AM 43.2206 -89.1633 304° West 242 278 4,500 -1,426 Descending Chicago Center
07:39AM 43.2483 -89.2261 301° West 229 264 3,500 -738 Descending Chicago Center
07:40AM 43.2444 -89.2919 265° West 168 193 3,000 -488 Descending Chicago Center
07:41AM 43.2192 -89.3286 227° Southwest 144 166 2,500 -537 Descending Chicago Center
07:42AM 43.1906 -89.3403 197° South 120 138 1,900 -590 Descending Chicago Center
07:43AM 43.1625 -89.3422 183° South 108 124 1,300 -590 Descending Chicago Center
07:45AM 43.1333 -89.3333 180° South  Level FlightAware Approximate